createdAt,value
2022-11-05T00:00:07.191Z,6.18
2022-11-05T00:05:30.798Z,6.14
2022-11-05T00:10:35.628Z,6.13
2022-11-05T00:16:01.667Z,6.09
2022-11-05T00:21:05.893Z,6.04
2022-11-05T00:26:11.465Z,6.00
2022-11-05T00:31:15.289Z,5.93
2022-11-05T00:36:16.975Z,5.92
2022-11-05T00:41:22.083Z,5.91
2022-11-05T00:46:26.201Z,5.89
2022-11-05T00:51:30.684Z,5.88
2022-11-05T00:56:32.370Z,5.96
2022-11-05T01:01:34.130Z,6.01
2022-11-05T01:06:39.341Z,5.97
2022-11-05T01:11:45.296Z,5.88
2022-11-05T01:16:46.991Z,5.78
2022-11-05T01:21:51.203Z,5.70
2022-11-05T01:26:57.290Z,5.65
2022-11-05T01:32:02.345Z,5.58
2022-11-05T01:37:06.817Z,5.51
2022-11-05T01:42:29.383Z,5.50
2022-11-05T01:53:55.642Z,5.31
2022-11-05T01:59:31.289Z,5.24
2022-11-05T02:04:43.765Z,5.23
2022-11-05T02:10:18.177Z,5.24
2022-11-05T02:15:52.377Z,5.16
2022-11-05T02:21:11.089Z,5.13
2022-11-05T02:26:31.126Z,5.11
2022-11-05T02:31:36.103Z,5.16
2022-11-05T02:36:48.131Z,5.16
2022-11-05T02:42:04.788Z,5.14
2022-11-05T02:47:18.337Z,5.11
2022-11-05T02:52:26.759Z,5.10
2022-11-05T02:57:45.289Z,5.10
2022-11-05T03:02:52.501Z,5.10
2022-11-05T03:08:04.460Z,5.12
2022-11-05T03:13:31.700Z,5.08
2022-11-05T03:19:12.922Z,5.06
2022-11-05T03:24:53.073Z,5.02
2022-11-05T03:30:18.681Z,4.98
2022-11-05T03:35:44.446Z,4.93
2022-11-05T03:41:06.114Z,4.88
2022-11-05T03:46:30.607Z,4.85
2022-11-05T03:51:37.002Z,4.81
2022-11-05T03:56:45.867Z,4.80
2022-11-05T04:01:52.457Z,4.77
2022-11-05T04:07:15.282Z,4.73
2022-11-05T04:12:48.536Z,4.72
2022-11-05T04:18:06.375Z,4.67
2022-11-05T04:23:34.230Z,4.61
2022-11-05T04:29:02.473Z,4.58
2022-11-05T04:34:11.476Z,4.55
2022-11-05T04:39:13.488Z,4.58
2022-11-05T04:44:20.997Z,4.54
2022-11-05T04:49:27.000Z,4.52
2022-11-05T04:54:34.721Z,4.54
2022-11-05T04:59:44.955Z,4.57
2022-11-05T05:05:01.315Z,4.58
2022-11-05T05:10:14.415Z,4.60
2022-11-05T05:15:38.506Z,4.60
2022-11-05T05:21:16.240Z,4.62
2022-11-05T05:26:23.698Z,4.61
2022-11-05T05:31:34.065Z,4.67
2022-11-05T05:36:56.861Z,4.68
2022-11-05T05:42:08.660Z,4.66
2022-11-05T05:47:29.550Z,4.66
2022-11-05T05:52:37.715Z,4.65
2022-11-05T05:57:40.080Z,4.63
2022-11-05T06:02:52.992Z,4.63
2022-11-05T06:07:59.011Z,4.64
2022-11-05T06:13:03.785Z,4.63
2022-11-05T06:18:10.736Z,4.61
2022-11-05T06:23:13.236Z,4.61
2022-11-05T06:28:17.022Z,4.59
2022-11-05T06:33:22.731Z,4.60
2022-11-05T06:38:29.619Z,4.64
2022-11-05T06:43:39.166Z,4.72
2022-11-05T06:48:43.531Z,4.73
2022-11-05T06:53:46.521Z,4.77
2022-11-05T06:59:05.397Z,4.81
2022-11-05T07:04:37.956Z,4.83
2022-11-05T07:09:54.020Z,4.90
2022-11-05T07:15:01.595Z,4.99
2022-11-05T07:20:19.599Z,5.03
2022-11-05T07:25:25.980Z,5.01
2022-11-05T07:30:33.488Z,5.04
2022-11-05T07:35:38.001Z,5.06
2022-11-05T07:40:42.000Z,5.13
2022-11-05T07:45:46.560Z,5.23
2022-11-05T07:50:54.748Z,5.27
2022-11-05T07:55:58.933Z,5.35
2022-11-05T08:01:00.781Z,5.44
2022-11-05T08:06:05.764Z,5.53
2022-11-05T08:11:09.751Z,5.58
2022-11-05T08:16:12.172Z,5.62
2022-11-05T08:21:26.331Z,5.65
2022-11-05T08:26:30.526Z,5.78
2022-11-05T08:31:38.176Z,5.93
2022-11-05T08:36:43.212Z,6.08
2022-11-05T08:41:51.025Z,6.26
2022-11-05T08:46:53.451Z,6.58
2022-11-05T08:52:02.766Z,6.92
2022-11-05T08:57:08.416Z,7.13
2022-11-05T09:02:16.599Z,7.29
2022-11-05T09:07:22.975Z,7.40
2022-11-05T09:12:27.580Z,7.38
2022-11-05T09:17:29.514Z,7.46
2022-11-05T09:22:31.305Z,7.64
2022-11-05T09:27:34.305Z,7.81
2022-11-05T09:32:38.393Z,8.02
2022-11-05T09:37:42.885Z,8.19
2022-11-05T09:42:52.466Z,8.35
2022-11-05T09:47:59.707Z,8.57
2022-11-05T09:53:02.159Z,8.74
2022-11-05T09:58:23.190Z,8.90
2022-11-05T10:03:29.692Z,9.01
2022-11-05T10:08:38.005Z,9.13
2022-11-05T10:13:43.554Z,9.27
2022-11-05T10:18:52.910Z,9.39
2022-11-05T10:23:54.843Z,9.49
2022-11-05T10:28:56.833Z,9.62
2022-11-05T10:34:02.728Z,9.66
2022-11-05T10:39:15.472Z,9.87
2022-11-05T10:44:24.462Z,10.04
2022-11-05T10:50:12.612Z,10.22
2022-11-05T10:55:23.266Z,10.44
2022-11-05T11:00:31.392Z,10.59
2022-11-05T11:05:39.056Z,10.82
2022-11-05T11:10:48.189Z,10.97
2022-11-05T11:15:53.032Z,11.29
2022-11-05T11:21:05.725Z,11.67
2022-11-05T11:26:08.381Z,12.07
2022-11-05T11:31:15.301Z,12.39
2022-11-05T11:36:25.940Z,12.82
2022-11-05T11:41:37.075Z,13.28
2022-11-05T11:46:39.059Z,13.95
2022-11-05T11:51:49.444Z,14.19
2022-11-05T11:56:51.866Z,14.32
2022-11-05T12:02:18.575Z,13.78
2022-11-05T12:07:23.292Z,14.47
2022-11-05T12:12:50.332Z,14.49
2022-11-05T12:18:06.856Z,15.65
2022-11-05T12:23:34.694Z,16.74
2022-11-05T12:29:17.137Z,17.38
2022-11-05T12:34:30.780Z,17.38
2022-11-05T12:39:39.765Z,17.45
2022-11-05T12:45:04.915Z,15.78
2022-11-05T12:50:30.423Z,15.66
2022-11-05T12:55:38.306Z,14.77
2022-11-05T13:00:44.445Z,14.28
2022-11-05T13:05:50.261Z,13.88
2022-11-05T13:10:57.276Z,13.69
2022-11-05T13:16:20.435Z,13.56
2022-11-05T13:21:24.894Z,13.39
2022-11-05T13:26:31.841Z,13.23
2022-11-05T13:31:48.081Z,13.18
2022-11-05T13:37:18.924Z,12.93
2022-11-05T13:42:54.568Z,12.86
2022-11-05T13:48:00.537Z,12.64
2022-11-05T13:53:31.741Z,12.34
2022-11-05T13:59:07.419Z,12.19
2022-11-05T14:04:36.266Z,12.06
2022-11-05T14:09:39.758Z,12.04
2022-11-05T14:14:45.938Z,11.95
2022-11-05T14:19:50.695Z,11.94
2022-11-05T14:24:52.627Z,11.89
2022-11-05T14:29:54.662Z,11.75
2022-11-05T14:35:06.418Z,11.66
2022-11-05T14:40:38.448Z,11.59
2022-11-05T14:46:00.918Z,11.49
2022-11-05T14:51:29.247Z,11.39
2022-11-05T14:56:51.801Z,11.31
2022-11-05T15:02:13.828Z,11.19
2022-11-05T15:07:22.823Z,11.10
2022-11-05T15:12:53.264Z,11.04
2022-11-05T15:18:02.363Z,10.97
2022-11-05T15:23:11.281Z,10.90
2022-11-05T15:28:49.812Z,10.83
2022-11-05T15:33:51.588Z,10.77
2022-11-05T15:39:22.935Z,10.74
2022-11-05T15:44:30.902Z,10.68
2022-11-05T15:49:32.923Z,10.64
2022-11-05T15:54:34.910Z,10.59
2022-11-05T15:59:37.869Z,10.53
2022-11-05T16:04:39.941Z,10.46
2022-11-05T16:09:51.389Z,10.38
2022-11-05T16:15:10.570Z,10.31
2022-11-05T16:20:29.994Z,10.25
2022-11-05T16:25:41.875Z,10.22
2022-11-05T16:31:01.934Z,10.16
2022-11-05T16:36:04.286Z,10.08
2022-11-05T16:41:16.870Z,10.04
2022-11-05T16:46:19.563Z,10.00
2022-11-05T16:51:28.880Z,9.95
2022-11-05T16:56:30.916Z,9.90
2022-11-05T17:01:36.941Z,9.87
2022-11-05T17:06:41.490Z,9.82
2022-11-05T17:11:46.110Z,9.75
2022-11-05T17:16:49.461Z,9.73
2022-11-05T17:21:53.956Z,9.72
2022-11-05T17:26:56.717Z,9.71
2022-11-05T17:32:00.593Z,9.68
2022-11-05T17:37:03.759Z,9.65
2022-11-05T17:42:05.714Z,9.65
2022-11-05T17:47:09.956Z,9.63
2022-11-05T17:52:11.855Z,9.60
2022-11-05T17:57:16.143Z,9.57
2022-11-05T18:02:18.089Z,9.55
2022-11-05T18:07:20.192Z,9.54
2022-11-05T18:12:22.213Z,9.52
2022-11-05T18:17:25.095Z,9.50
2022-11-05T18:22:26.946Z,9.46
2022-11-05T18:27:28.779Z,9.46
2022-11-05T18:32:33.018Z,9.44
2022-11-05T18:37:39.180Z,9.43
2022-11-05T18:42:41.672Z,9.40
2022-11-05T18:47:44.437Z,9.41
2022-11-05T18:52:51.178Z,9.40
2022-11-05T18:57:53.169Z,9.37
2022-11-05T19:02:55.096Z,9.36
2022-11-05T19:07:58.094Z,9.33
2022-11-05T19:13:05.065Z,9.30
2022-11-05T19:18:06.842Z,9.27
2022-11-05T19:23:08.659Z,9.24
2022-11-05T19:28:14.059Z,9.21
2022-11-05T19:33:18.580Z,9.19
2022-11-05T19:38:21.388Z,9.17
2022-11-05T19:43:23.155Z,9.17
2022-11-05T19:48:25.395Z,9.16
2022-11-05T19:53:29.068Z,9.12
2022-11-05T19:58:33.211Z,9.12
2022-11-05T20:03:37.845Z,9.11
2022-11-05T20:08:59.786Z,9.09
2022-11-05T20:14:29.877Z,9.06
2022-11-05T20:19:36.662Z,9.06
2022-11-05T20:24:40.706Z,9.04
2022-11-05T20:29:42.545Z,9.02
2022-11-05T20:34:44.633Z,9.00
2022-11-05T20:39:49.575Z,8.98
2022-11-05T20:44:51.217Z,8.97
2022-11-05T20:49:55.483Z,8.99
2022-11-05T20:54:59.680Z,9.04
2022-11-05T21:00:01.500Z,9.05
2022-11-05T21:05:07.439Z,9.07
2022-11-05T21:10:12.467Z,9.07
2022-11-05T21:15:15.856Z,9.07
2022-11-05T21:20:20.260Z,9.07
2022-11-05T21:25:24.773Z,9.08
2022-11-05T21:30:31.446Z,9.07
2022-11-05T21:35:33.475Z,9.05
2022-11-05T21:40:35.224Z,9.04
2022-11-05T21:45:44.171Z,9.03
2022-11-05T21:51:10.190Z,9.03
2022-11-05T21:56:42.263Z,9.03
2022-11-05T22:01:45.607Z,9.02
2022-11-05T22:06:50.113Z,9.03
2022-11-05T22:11:54.450Z,9.04
2022-11-05T22:16:59.065Z,9.05
2022-11-05T22:22:00.725Z,9.08
2022-11-05T22:27:10.410Z,9.11
2022-11-05T22:32:12.424Z,9.11
2022-11-05T22:37:16.450Z,9.13
2022-11-05T22:42:18.142Z,9.13
2022-11-05T22:47:24.771Z,9.16
2022-11-05T22:52:33.338Z,9.16
2022-11-05T22:57:38.112Z,9.14
2022-11-05T23:02:39.940Z,9.12
2022-11-05T23:08:01.768Z,9.13
2022-11-05T23:13:04.680Z,9.15
2022-11-05T23:18:25.087Z,9.15
2022-11-05T23:23:47.913Z,9.14
2022-11-05T23:28:54.408Z,9.14
2022-11-05T23:33:58.193Z,9.15
2022-11-05T23:38:59.852Z,9.18
2022-11-05T23:44:22.670Z,9.19
2022-11-05T23:49:26.611Z,9.20
2022-11-05T23:54:29.568Z,9.20
2022-11-05T23:59:33.435Z,9.22
